Terminal Aerodrome Forecast
Issued by NWS

Home | Current Version | Previous Version | Text Only | Print | Product List | Glossary On
Versions: 1 2 3 4 5 6 7 8 9 10 11 12 13 14 15 16 17
000
FTUS42 KTAE 211532 AAB
TAFECP
TAF AMD
KECP 211532Z 2116/2212 13010G15KT P6SM BKN015
     FM211800 14010G15KT P6SM BKN040
     FM220800 12005KT 6SM BR SCT015=

USA.gov is the U.S. government's official web portal to all federal, state and local government web resources and services.